createdAt,value
2022-12-22T00:00:20.139Z,97953.63
2022-12-22T00:03:32.447Z,97950.73
2022-12-22T00:06:19.389Z,97950.39
2022-12-22T00:09:06.274Z,97947.66
2022-12-22T00:11:52.946Z,97945.28
2022-12-22T00:14:39.488Z,97941.86
2022-12-22T00:17:33.786Z,97941.69
2022-12-22T00:20:20.615Z,97939.46
2022-12-22T00:23:07.505Z,97941.84
2022-12-22T00:25:54.421Z,97939.25
2022-12-22T00:28:40.995Z,97941.11
2022-12-22T00:31:28.172Z,97937.88
2022-12-22T00:34:15.076Z,97937.16
2022-12-22T00:37:02.991Z,97932.40
2022-12-22T00:39:49.887Z,97928.63
2022-12-22T00:42:36.930Z,97926.59
2022-12-22T00:45:24.329Z,97928.88
2022-12-22T00:48:11.077Z,97925.81
2022-12-22T00:50:57.464Z,97926.05
2022-12-22T00:53:44.564Z,97917.20
2022-12-22T00:56:31.538Z,97915.34
2022-12-22T00:59:19.201Z,97914.01
2022-12-22T01:02:06.156Z,97910.59
2022-12-22T01:04:52.980Z,97909.91
2022-12-22T01:07:40.916Z,97904.79
2022-12-22T01:10:32.743Z,97903.27
2022-12-22T01:13:19.289Z,97901.90
2022-12-22T01:16:06.002Z,97896.48
2022-12-22T01:18:52.513Z,97896.65
2022-12-22T01:21:39.950Z,97897.49
2022-12-22T01:24:35.693Z,97896.98
2022-12-22T01:27:23.526Z,97890.64
2022-12-22T01:30:10.496Z,97886.71
2022-12-22T01:32:57.421Z,97882.95
2022-12-22T01:35:49.224Z,97880.36
2022-12-22T01:38:35.935Z,97885.48
2022-12-22T01:41:31.145Z,97882.22
2022-12-22T01:44:17.789Z,97881.21
2022-12-22T01:47:05.704Z,97877.28
2022-12-22T01:49:59.722Z,97875.23
2022-12-22T01:52:53.596Z,97875.94
2022-12-22T01:55:43.550Z,97870.33
2022-12-22T01:58:45.242Z,97867.94
2022-12-22T02:01:32.556Z,97869.64
2022-12-22T02:04:20.495Z,97871.19
2022-12-22T02:07:11.698Z,97875.46
2022-12-22T02:10:37.748Z,97873.95
2022-12-22T02:13:52.857Z,97876.31
2022-12-22T02:17:18.203Z,97867.58
2022-12-22T02:20:38.882Z,97865.17
2022-12-22T02:24:10.269Z,97866.50
2022-12-22T02:27:05.115Z,97863.45
2022-12-22T02:30:05.914Z,97867.86
2022-12-22T02:32:56.642Z,97864.31
2022-12-22T02:35:43.449Z,97863.13
2022-12-22T02:38:40.346Z,97863.32
2022-12-22T02:41:38.911Z,97860.79
2022-12-22T02:45:10.825Z,97864.23
2022-12-22T02:48:22.567Z,97864.41
2022-12-22T02:51:23.316Z,97868.53
2022-12-22T02:54:16.232Z,97865.30
2022-12-22T02:57:03.799Z,97864.65
2022-12-22T02:59:50.465Z,97863.14
2022-12-22T03:02:37.312Z,97860.23
2022-12-22T03:05:24.769Z,97860.91
2022-12-22T03:08:11.316Z,97859.05
2022-12-22T03:10:58.239Z,97853.44
2022-12-22T03:13:45.294Z,97848.84
2022-12-22T03:16:32.270Z,97852.75
2022-12-22T03:19:19.096Z,97848.80
2022-12-22T03:22:06.029Z,97856.95
2022-12-22T03:24:52.901Z,97852.31
2022-12-22T03:27:21.044Z,97846.86
2022-12-22T03:29:49.183Z,97849.94
2022-12-22T03:32:18.806Z,97846.00
2022-12-22T03:34:46.939Z,97847.01
2022-12-22T03:37:15.112Z,97846.14
2022-12-22T03:39:43.379Z,97841.04
2022-12-22T03:42:31.068Z,97835.73
2022-12-22T03:45:17.935Z,97832.84
2022-12-22T03:47:46.050Z,97826.36
2022-12-22T03:50:14.319Z,97833.64
2022-12-22T03:52:42.501Z,97828.37
2022-12-22T03:55:10.609Z,97824.42
2022-12-22T03:57:38.812Z,97811.83
2022-12-22T04:00:08.643Z,97811.38
2022-12-22T04:02:40.093Z,97814.45
2022-12-22T04:05:09.240Z,97810.38
2022-12-22T04:07:37.394Z,97811.53
2022-12-22T04:10:25.811Z,97811.18
2022-12-22T04:12:54.623Z,97808.73
2022-12-22T04:15:32.436Z,97809.56
2022-12-22T04:18:00.619Z,97809.34
2022-12-22T04:20:29.226Z,97806.92
2022-12-22T04:22:57.769Z,97808.81
2022-12-22T04:25:27.130Z,97808.41
2022-12-22T04:27:55.432Z,97801.02
2022-12-22T04:30:23.655Z,97799.96
2022-12-22T04:32:51.856Z,97807.61
2022-12-22T04:35:20.041Z,97800.13
2022-12-22T04:37:49.643Z,97796.55
2022-12-22T04:40:18.671Z,97795.88
2022-12-22T04:42:47.090Z,97800.33
2022-12-22T04:45:15.684Z,97804.79
2022-12-22T04:47:43.875Z,97800.17
2022-12-22T04:50:12.060Z,97802.22
2022-12-22T04:52:40.277Z,97804.42
2022-12-22T04:55:09.547Z,97800.34
2022-12-22T04:57:40.824Z,97799.83
2022-12-22T05:00:10.891Z,97798.42
2022-12-22T05:02:39.053Z,97799.89
2022-12-22T05:05:08.731Z,97803.83
2022-12-22T05:07:37.592Z,97804.23
2022-12-22T05:10:06.931Z,97805.25
2022-12-22T05:12:53.520Z,97805.20
2022-12-22T05:15:33.956Z,97801.77
2022-12-22T05:18:02.951Z,97803.64
2022-12-22T05:20:32.347Z,97800.08
2022-12-22T05:23:00.494Z,97799.56
2022-12-22T05:25:34.715Z,97797.34
2022-12-22T05:28:04.176Z,97800.73
2022-12-22T05:30:32.432Z,97794.26
2022-12-22T05:33:00.725Z,97789.63
2022-12-22T05:35:28.964Z,97790.50
2022-12-22T05:37:57.133Z,97784.47
2022-12-22T05:40:26.771Z,97779.14
2022-12-22T05:42:55.636Z,97775.02
2022-12-22T05:45:24.043Z,97773.55
2022-12-22T05:47:52.933Z,97770.77
2022-12-22T05:50:25.211Z,97771.69
2022-12-22T05:53:00.347Z,97773.15
2022-12-22T05:55:28.667Z,97773.82
2022-12-22T05:57:56.947Z,97779.43
2022-12-22T06:00:25.362Z,97780.23
2022-12-22T06:02:53.638Z,97780.69
2022-12-22T06:05:22.115Z,97784.77
2022-12-22T06:07:50.387Z,97784.95
2022-12-22T06:10:18.654Z,97784.12
2022-12-22T06:12:46.851Z,97782.75
2022-12-22T06:15:16.149Z,97785.87
2022-12-22T06:17:45.440Z,97792.83
2022-12-22T06:20:14.396Z,97790.80
2022-12-22T06:22:42.597Z,97795.11
2022-12-22T06:25:17.553Z,97790.66
2022-12-22T06:27:47.769Z,97797.67
2022-12-22T06:30:16.768Z,97796.27
2022-12-22T06:32:45.089Z,97798.84
2022-12-22T06:35:13.628Z,97802.73
2022-12-22T06:37:41.903Z,97799.95
2022-12-22T06:40:10.752Z,97801.03
2022-12-22T06:43:20.315Z,97797.93
2022-12-22T06:45:48.540Z,97803.16
2022-12-22T06:48:16.806Z,97802.34
2022-12-22T06:50:45.328Z,97803.99
2022-12-22T06:53:13.729Z,97805.26
2022-12-22T06:55:41.845Z,97806.09
2022-12-22T06:58:09.998Z,97812.54
2022-12-22T07:00:38.647Z,97813.58
2022-12-22T07:03:07.135Z,97811.66
2022-12-22T07:05:35.543Z,97818.83
2022-12-22T07:08:08.472Z,97821.74
2022-12-22T07:10:56.347Z,97818.98
2022-12-22T07:13:31.979Z,97824.47
2022-12-22T07:16:02.525Z,97817.59
2022-12-22T07:18:33.603Z,97813.55
2022-12-22T07:21:04.805Z,97817.08
2022-12-22T07:23:33.500Z,97814.47
2022-12-22T07:26:02.201Z,97808.44
2022-12-22T07:28:36.810Z,97806.27
2022-12-22T07:31:05.896Z,97803.48
2022-12-22T07:33:34.180Z,97800.41
2022-12-22T07:36:18.689Z,97797.29
2022-12-22T07:38:50.249Z,97792.23
2022-12-22T07:41:38.931Z,97795.27
2022-12-22T07:44:08.226Z,97793.67
2022-12-22T07:46:40.539Z,97795.70
2022-12-22T07:49:29.738Z,97789.84
2022-12-22T07:51:59.314Z,97789.96
2022-12-22T07:54:28.631Z,97783.28
2022-12-22T07:56:56.904Z,97787.81
2022-12-22T07:59:25.018Z,97788.44
2022-12-22T08:01:53.541Z,97784.64
2022-12-22T08:04:22.682Z,97780.02
2022-12-22T08:06:50.996Z,97774.50
2022-12-22T08:09:21.694Z,97775.36
2022-12-22T08:11:50.358Z,97775.38
2022-12-22T08:14:18.731Z,97772.64
2022-12-22T08:16:47.090Z,97775.45
2022-12-22T08:19:15.629Z,97771.73
2022-12-22T08:21:50.329Z,97772.09
2022-12-22T08:24:22.021Z,97770.70
2022-12-22T08:26:55.791Z,97770.98
2022-12-22T08:29:38.738Z,97773.48
2022-12-22T08:32:07.302Z,97774.80
2022-12-22T08:34:35.652Z,97773.67
2022-12-22T08:37:08.016Z,97771.35
2022-12-22T08:39:39.289Z,97776.07
2022-12-22T08:42:11.862Z,97778.92
2022-12-22T08:44:40.066Z,97775.10
2022-12-22T08:47:14.855Z,97772.08
2022-12-22T08:49:44.812Z,97767.27
2022-12-22T08:52:18.404Z,97762.29
2022-12-22T08:54:47.546Z,97762.98
2022-12-22T08:57:15.751Z,97757.09
2022-12-22T08:59:44.050Z,97754.97
2022-12-22T09:02:12.277Z,97752.34
2022-12-22T09:04:40.441Z,97751.64
2022-12-22T09:07:08.895Z,97748.27
2022-12-22T09:09:37.220Z,97743.10
2022-12-22T09:12:06.026Z,97742.38
2022-12-22T09:14:34.289Z,97739.64
2022-12-22T09:17:02.582Z,97736.38
2022-12-22T09:19:30.891Z,97739.14
2022-12-22T09:21:58.977Z,97736.36
2022-12-22T09:24:27.298Z,97731.21
2022-12-22T09:26:55.570Z,97728.38
2022-12-22T09:29:23.917Z,97727.43
2022-12-22T09:31:52.171Z,97724.66
2022-12-22T09:34:20.405Z,97727.09
2022-12-22T09:36:48.681Z,97728.12
2022-12-22T09:39:17.172Z,97726.52
2022-12-22T09:41:53.107Z,97723.04
2022-12-22T09:44:42.342Z,97720.70
2022-12-22T09:47:38.947Z,97725.52
2022-12-22T09:50:16.125Z,97718.38
2022-12-22T09:52:50.322Z,97717.02
2022-12-22T09:55:48.532Z,97716.34
2022-12-22T09:58:26.227Z,97714.91
2022-12-22T10:01:26.550Z,97716.33
2022-12-22T10:04:12.964Z,97714.27
2022-12-22T10:06:59.206Z,97716.41
2022-12-22T10:12:25.101Z,97706.40
2022-12-22T10:14:55.094Z,97700.92
2022-12-22T10:17:26.628Z,97700.63
2022-12-22T10:20:07.109Z,97696.85
2022-12-22T10:22:47.601Z,97705.27
2022-12-22T10:25:52.398Z,97706.67
2022-12-22T10:28:27.235Z,97699.48
2022-12-22T10:31:21.309Z,97690.89
2022-12-22T10:33:54.851Z,97692.17
2022-12-22T10:36:31.082Z,97685.80
2022-12-22T10:39:11.132Z,97679.04
2022-12-22T10:41:47.919Z,97679.08
2022-12-22T10:44:15.920Z,97686.15
2022-12-22T10:46:47.105Z,97689.08
2022-12-22T10:49:20.781Z,97683.36
2022-12-22T10:51:56.046Z,97684.52
2022-12-22T10:54:38.516Z,97678.59
2022-12-22T10:57:16.642Z,97673.13
2022-12-22T10:59:56.884Z,97669.96
2022-12-22T11:02:38.487Z,97671.19
2022-12-22T11:05:12.139Z,97678.67
2022-12-22T11:07:43.402Z,97674.30
2022-12-22T11:10:14.863Z,97663.27
2022-12-22T11:12:51.708Z,97655.52
2022-12-22T11:15:41.031Z,97658.19
2022-12-22T11:18:34.028Z,97653.69
2022-12-22T11:21:24.883Z,97643.39
2022-12-22T11:24:21.817Z,97640.38
2022-12-22T11:27:25.935Z,97633.16
2022-12-22T11:30:20.806Z,97633.61
2022-12-22T11:33:23.784Z,97633.18
2022-12-22T11:36:01.236Z,97627.64
2022-12-22T11:38:46.972Z,97626.23
2022-12-22T11:41:33.793Z,97621.31
2022-12-22T11:44:45.360Z,97620.44
2022-12-22T11:47:58.233Z,97621.05
2022-12-22T11:51:01.999Z,97620.41
2022-12-22T11:53:55.640Z,97623.67
2022-12-22T11:56:29.342Z,97615.19
2022-12-22T11:59:18.864Z,97616.34
2022-12-22T12:01:59.045Z,97620.98
2022-12-22T12:04:39.436Z,97621.63
2022-12-22T12:07:34.576Z,97619.86
2022-12-22T12:10:22.347Z,97618.89
2022-12-22T12:13:27.412Z,97621.48
2022-12-22T12:16:37.437Z,97617.02
2022-12-22T12:19:51.660Z,97616.58
2022-12-22T12:22:25.873Z,97608.41
2022-12-22T12:25:25.608Z,97607.37
2022-12-22T12:28:05.200Z,97591.95
2022-12-22T12:30:53.893Z,97591.63
2022-12-22T12:34:01.127Z,97592.76
2022-12-22T12:36:43.427Z,97601.05
2022-12-22T12:39:31.471Z,97604.14
2022-12-22T12:42:43.602Z,97600.17
2022-12-22T12:45:41.295Z,97594.60
2022-12-22T12:48:24.641Z,97604.69
2022-12-22T12:50:59.533Z,97610.41
2022-12-22T12:53:30.124Z,97616.45
2022-12-22T12:56:09.415Z,97623.54
2022-12-22T12:58:37.907Z,97626.75
2022-12-22T13:01:12.157Z,97630.70
2022-12-22T13:06:49.818Z,97633.50
2022-12-22T13:09:49.845Z,97626.96
2022-12-22T13:12:39.793Z,97627.50
2022-12-22T13:15:30.135Z,97633.36
2022-12-22T13:18:00.603Z,97631.64
2022-12-22T13:20:37.493Z,97635.39
2022-12-22T13:23:14.783Z,97636.98
2022-12-22T13:26:00.103Z,97636.45
2022-12-22T13:28:29.733Z,97635.02
2022-12-22T13:31:06.577Z,97633.80
2022-12-22T13:33:39.219Z,97634.99
2022-12-22T13:36:18.666Z,97631.70
2022-12-22T13:38:46.749Z,97637.38
2022-12-22T13:41:24.971Z,97642.66
2022-12-22T13:44:07.378Z,97642.57
2022-12-22T13:46:37.565Z,97647.40
2022-12-22T13:49:13.693Z,97645.20
2022-12-22T13:51:48.900Z,97639.38
2022-12-22T13:54:39.419Z,97637.13
2022-12-22T13:57:22.282Z,97635.91
2022-12-22T13:59:52.149Z,97640.10
2022-12-22T14:02:22.581Z,97636.09
2022-12-22T14:05:09.035Z,97626.38
2022-12-22T14:07:37.267Z,97622.98
2022-12-22T14:10:07.462Z,97624.75
2022-12-22T14:12:44.794Z,97625.25
2022-12-22T14:15:19.435Z,97629.54
2022-12-22T14:17:52.658Z,97631.26
2022-12-22T14:20:38.131Z,97637.83
2022-12-22T14:23:12.657Z,97636.84
2022-12-22T14:25:44.196Z,97639.09
2022-12-22T14:28:39.385Z,97641.89
2022-12-22T14:31:08.347Z,97650.20
2022-12-22T14:33:36.711Z,97653.86
2022-12-22T14:36:20.806Z,97647.89
2022-12-22T14:38:54.884Z,97653.80
2022-12-22T14:41:43.049Z,97654.05
2022-12-22T14:44:28.405Z,97656.50
2022-12-22T14:47:17.922Z,97660.25
2022-12-22T14:50:26.674Z,97656.26
2022-12-22T14:52:58.845Z,97660.45
2022-12-22T14:55:39.797Z,97658.14
2022-12-22T14:58:16.269Z,97653.69
2022-12-22T15:01:09.360Z,97659.79
2022-12-22T15:03:38.982Z,97657.31
2022-12-22T15:06:29.487Z,97659.98
2022-12-22T15:09:07.338Z,97669.30
2022-12-22T15:11:39.031Z,97670.11
2022-12-22T15:14:15.531Z,97670.80
2022-12-22T15:16:45.549Z,97676.59
2022-12-22T15:19:22.513Z,97673.69
2022-12-22T15:21:51.893Z,97676.52
2022-12-22T15:24:20.047Z,97678.66
2022-12-22T15:26:48.324Z,97679.12
2022-12-22T15:29:16.639Z,97687.34
2022-12-22T15:31:45.035Z,97683.83
2022-12-22T15:34:30.965Z,97683.80
2022-12-22T15:36:59.149Z,97684.93
2022-12-22T15:39:30.933Z,97680.55
2022-12-22T15:42:05.928Z,97685.96
2022-12-22T15:44:38.667Z,97680.05
2022-12-22T15:47:10.680Z,97683.05
2022-12-22T15:49:40.316Z,97678.45
2022-12-22T15:52:13.323Z,97679.42
2022-12-22T15:54:41.826Z,97687.71
2022-12-22T15:57:14.231Z,97691.45
2022-12-22T15:59:45.935Z,97682.68
2022-12-22T16:02:16.693Z,97683.65
2022-12-22T16:04:46.842Z,97686.42
2022-12-22T16:07:16.831Z,97692.89
2022-12-22T16:09:49.285Z,97692.77
2022-12-22T16:12:20.999Z,97692.70
2022-12-22T16:14:56.431Z,97691.59
2022-12-22T16:17:28.752Z,97693.70
2022-12-22T16:19:58.927Z,97692.52
2022-12-22T16:22:46.490Z,97694.64
2022-12-22T16:25:43.221Z,97695.34
2022-12-22T16:28:41.719Z,97701.44
2022-12-22T16:32:03.335Z,97706.30
2022-12-22T16:34:43.985Z,97703.59
2022-12-22T16:37:17.301Z,97702.39
2022-12-22T16:39:52.838Z,97706.52
2022-12-22T16:45:23.308Z,97691.27
2022-12-22T16:47:53.972Z,97694.82
2022-12-22T16:50:32.437Z,97699.16
2022-12-22T16:53:05.359Z,97709.92
2022-12-22T16:55:35.947Z,97713.24
2022-12-22T16:58:12.988Z,97712.30
2022-12-22T17:00:45.220Z,97716.73
2022-12-22T17:03:24.391Z,97715.96
2022-12-22T17:05:56.309Z,97711.66
2022-12-22T17:08:28.018Z,97708.77
2022-12-22T17:11:10.388Z,97707.39
2022-12-22T17:13:39.690Z,97698.00
2022-12-22T17:16:19.036Z,97693.68
2022-12-22T17:18:48.185Z,97687.98
2022-12-22T17:21:19.187Z,97689.93
2022-12-22T17:23:52.019Z,97687.27
2022-12-22T17:26:32.024Z,97686.16
2022-12-22T17:29:00.996Z,97677.92
2022-12-22T17:31:29.881Z,97668.59
2022-12-22T17:33:58.285Z,97672.46
2022-12-22T17:36:35.876Z,97683.22
2022-12-22T17:39:05.140Z,97689.15
2022-12-22T17:41:33.869Z,97689.47
2022-12-22T17:44:03.421Z,97687.64
2022-12-22T17:46:37.541Z,97686.58
2022-12-22T17:49:05.689Z,97684.08
2022-12-22T17:51:34.155Z,97679.19
2022-12-22T17:54:02.574Z,97677.66
2022-12-22T17:56:31.333Z,97677.34
2022-12-22T17:58:59.449Z,97678.29
2022-12-22T18:01:32.501Z,97677.49
2022-12-22T18:04:01.041Z,97676.85
2022-12-22T18:06:34.561Z,97680.73
2022-12-22T18:09:26.812Z,97675.81
2022-12-22T18:11:59.274Z,97674.88
2022-12-22T18:14:32.604Z,97678.26
2022-12-22T18:17:35.513Z,97678.52
2022-12-22T18:20:33.485Z,97671.05
2022-12-22T18:23:32.235Z,97671.97
2022-12-22T18:26:01.883Z,97666.86
2022-12-22T18:28:32.303Z,97659.55
2022-12-22T18:31:00.557Z,97658.45
2022-12-22T18:33:28.707Z,97657.88
2022-12-22T18:35:59.212Z,97651.11
2022-12-22T18:38:33.814Z,97644.74
2022-12-22T18:41:02.370Z,97643.98
2022-12-22T18:43:30.632Z,97646.73
2022-12-22T18:45:58.864Z,97640.69
2022-12-22T18:48:28.262Z,97644.85
2022-12-22T18:50:56.684Z,97642.34
2022-12-22T18:53:29.581Z,97642.63
2022-12-22T18:55:58.742Z,97648.00
2022-12-22T18:58:29.170Z,97651.16
2022-12-22T19:01:03.852Z,97650.00
2022-12-22T19:03:34.021Z,97654.51
2022-12-22T19:06:04.814Z,97652.14
2022-12-22T19:08:35.462Z,97653.19
2022-12-22T19:11:08.379Z,97658.70
2022-12-22T19:13:45.535Z,97659.92
2022-12-22T19:16:19.788Z,97656.20
2022-12-22T19:18:51.221Z,97652.86
2022-12-22T19:21:21.048Z,97658.29
2022-12-22T19:23:50.560Z,97660.69
2022-12-22T19:26:27.015Z,97666.00
2022-12-22T19:29:01.751Z,97660.38
2022-12-22T19:31:35.252Z,97661.30
2022-12-22T19:34:10.052Z,97662.27
2022-12-22T19:36:41.713Z,97661.53
2022-12-22T19:39:10.189Z,97661.48
2022-12-22T19:42:03.496Z,97659.92
2022-12-22T19:44:34.805Z,97658.13
2022-12-22T19:47:03.822Z,97655.19
2022-12-22T19:49:32.018Z,97655.92
2022-12-22T19:52:00.817Z,97649.08
2022-12-22T19:54:32.473Z,97647.30
2022-12-22T19:57:06.864Z,97641.33
2022-12-22T19:59:47.732Z,97640.42
2022-12-22T20:02:22.559Z,97637.34
2022-12-22T20:04:53.253Z,97636.36
2022-12-22T20:07:25.599Z,97628.66
2022-12-22T20:09:53.945Z,97628.57
2022-12-22T20:12:26.471Z,97634.64
2022-12-22T20:14:55.315Z,97636.48
2022-12-22T20:17:23.714Z,97637.77
2022-12-22T20:19:51.828Z,97634.61
2022-12-22T20:22:22.712Z,97635.46
2022-12-22T20:24:51.513Z,97631.13
2022-12-22T20:27:31.657Z,97629.40
2022-12-22T20:30:00.149Z,97626.40
2022-12-22T20:32:29.007Z,97630.78
2022-12-22T20:34:57.284Z,97628.23
2022-12-22T20:37:25.699Z,97625.84
2022-12-22T20:39:53.990Z,97627.75
2022-12-22T20:42:24.698Z,97626.75
2022-12-22T20:45:03.442Z,97626.27
2022-12-22T20:47:34.313Z,97625.06
2022-12-22T20:50:02.542Z,97623.89
2022-12-22T20:52:30.732Z,97626.33
2022-12-22T20:54:59.023Z,97628.75
2022-12-22T20:57:27.896Z,97628.41
2022-12-22T20:59:56.930Z,97621.33
2022-12-22T21:02:29.409Z,97620.63
2022-12-22T21:04:58.102Z,97619.23
2022-12-22T21:07:27.474Z,97623.39
2022-12-22T21:09:55.615Z,97627.99
2022-12-22T21:12:25.043Z,97626.42
2022-12-22T21:14:53.404Z,97624.14
2022-12-22T21:17:24.620Z,97620.80
2022-12-22T21:19:53.008Z,97616.96
2022-12-22T21:22:21.428Z,97614.33
2022-12-22T21:24:49.831Z,97611.34
2022-12-22T21:27:20.540Z,97600.38
2022-12-22T21:29:48.737Z,97602.85
2022-12-22T21:32:16.981Z,97604.77
2022-12-22T21:34:45.086Z,97603.96
2022-12-22T21:37:18.970Z,97601.44
2022-12-22T21:39:48.528Z,97596.70
2022-12-22T21:42:20.010Z,97599.07
2022-12-22T21:44:48.281Z,97595.74
2022-12-22T21:47:20.862Z,97600.64
2022-12-22T21:49:49.056Z,97602.77
2022-12-22T21:52:17.227Z,97600.44
2022-12-22T21:54:45.489Z,97601.19
2022-12-22T21:57:18.400Z,97602.27
2022-12-22T21:59:47.148Z,97599.95
2022-12-22T22:02:18.271Z,97603.54
2022-12-22T22:04:54.114Z,97601.77
2022-12-22T22:07:23.368Z,97599.74
2022-12-22T22:09:51.620Z,97603.41
2022-12-22T22:12:37.029Z,97600.48
2022-12-22T22:15:07.999Z,97595.81
2022-12-22T22:17:36.204Z,97588.58
2022-12-22T22:20:06.752Z,97581.36
2022-12-22T22:22:35.158Z,97583.66
2022-12-22T22:25:04.142Z,97583.95
2022-12-22T22:27:32.335Z,97577.25
2022-12-22T22:30:00.507Z,97567.31
2022-12-22T22:32:29.145Z,97566.24
2022-12-22T22:34:57.311Z,97559.21
2022-12-22T22:37:25.628Z,97558.41
2022-12-22T22:39:53.748Z,97556.70
2022-12-22T22:42:21.982Z,97553.77
2022-12-22T22:44:50.158Z,97551.39
2022-12-22T22:47:18.360Z,97548.70
2022-12-22T22:49:46.659Z,97548.84
2022-12-22T22:52:18.893Z,97549.87
2022-12-22T22:54:47.726Z,97548.86
2022-12-22T22:57:18.319Z,97549.81
2022-12-22T22:59:48.257Z,97549.37
2022-12-22T23:02:20.099Z,97547.16
2022-12-22T23:04:50.995Z,97542.52
2022-12-22T23:07:19.393Z,97546.15
2022-12-22T23:09:47.566Z,97546.23
2022-12-22T23:12:15.935Z,97545.56
2022-12-22T23:14:44.096Z,97544.70
2022-12-22T23:17:12.494Z,97541.05
2022-12-22T23:19:42.026Z,97543.08
2022-12-22T23:22:10.341Z,97543.60
2022-12-22T23:24:38.904Z,97545.88
2022-12-22T23:27:07.400Z,97545.40
2022-12-22T23:29:37.053Z,97546.48
2022-12-22T23:32:06.232Z,97546.66
2022-12-22T23:34:35.995Z,97554.25
2022-12-22T23:37:04.715Z,97548.75
2022-12-22T23:39:37.473Z,97552.65
2022-12-22T23:42:06.056Z,97555.50
2022-12-22T23:44:36.460Z,97559.64
2022-12-22T23:47:05.025Z,97554.61
2022-12-22T23:49:33.340Z,97561.61
2022-12-22T23:52:01.643Z,97556.05
2022-12-22T23:54:30.464Z,97567.59
2022-12-22T23:56:59.416Z,97561.40
2022-12-22T23:59:29.943Z,97571.63
